Saltar para o conteúdo principal

Ponte de Sôr / Aeródromo

ID 6210817 · 39.2154, -8.0542 mapa

Última leitura · 2026-05-09 18:00 (Europe/Lisbon)

Temperatura
14.0 °C
Humidade
89 %
Pressão
1,006.9 hPa
Precipitação
Radiação
Velocidade do vento
22.7 km/h
Direcção do vento
W · Oeste

Histórico de 24 horas

Hora (Europe/Lisbon) Temperatura Humidade Pressão Chuva Vento Direcção
2026-05-09 18:00 14.0 °C 89 % 1,006.9 22.7 km/h W
2026-05-09 17:00 16.7 °C 73 % 1,006.3 16.2 km/h S
2026-05-09 16:00 20.3 °C 51 % 1,005.6 34.9 km/h SW
2026-05-09 15:00 20.3 °C 50 % 1,005.3 33.8 km/h S
2026-05-09 14:00 18.2 °C 67 % 1,005.2 32.0 km/h SW
2026-05-09 13:00 18.3 °C 65 % 1,004.8 24.1 km/h SW
2026-05-09 12:00 16.4 °C 82 % 1,004.3 22.3 km/h S
2026-05-09 11:00 15.0 °C 89 % 1,004.3 7.6 km/h SE
2026-05-09 10:00 14.1 °C 89 % 1,004.5 9.0 km/h SE
2026-05-09 09:00 12.9 °C 93 % 1,004.9 7.2 km/h SE
2026-05-09 08:00 13.1 °C 91 % 1,004.8 5.8 km/h S
2026-05-09 07:00 13.5 °C 88 % 1,004.4 11.5 km/h SE
2026-05-09 06:00 13.2 °C 92 % 1,004.6 7.9 km/h SE
2026-05-09 05:00 13.2 °C 91 % 1,005.4 8.6 km/h E
2026-05-09 04:00 12.9 °C 89 % 1,006.0 8.3 km/h SE
2026-05-09 03:00 12.8 °C 87 % 1,006.6 4.7 km/h S
2026-05-09 02:00 13.5 °C 84 % 1,007.0 6.8 km/h SE
2026-05-09 01:00 14.0 °C 85 % 1,007.3 14.8 km/h S
2026-05-09 00:00 14.0 °C 85 % 1,007.5 17.6 km/h SE
2026-05-08 23:00 14.5 °C 89 % 1,008.2 24.8 km/h S